createdAt,value
2022-10-06T00:01:20.542Z,12.00
2022-10-06T00:03:49.174Z,12.90
2022-10-06T00:06:18.692Z,13.10
2022-10-06T00:08:47.260Z,12.70
2022-10-06T00:11:17.435Z,13.10
2022-10-06T00:13:46.244Z,12.60
2022-10-06T00:16:24.619Z,11.70
2022-10-06T00:18:52.904Z,12.70
2022-10-06T00:21:21.017Z,13.60
2022-10-06T00:23:49.133Z,12.40
2022-10-06T00:26:17.623Z,12.70
2022-10-06T00:28:49.904Z,13.10
2022-10-06T00:31:19.970Z,13.00
2022-10-06T00:33:50.293Z,12.20
2022-10-06T00:36:18.879Z,12.50
2022-10-06T00:38:47.696Z,12.30
2022-10-06T00:41:17.697Z,12.20
2022-10-06T00:43:57.650Z,12.20
2022-10-06T00:46:56.405Z,12.40
2022-10-06T00:49:30.768Z,12.40
2022-10-06T00:52:06.617Z,12.90
2022-10-06T00:54:36.396Z,13.10
2022-10-06T00:57:06.136Z,12.40
2022-10-06T00:59:36.306Z,12.70
2022-10-06T01:02:15.621Z,13.00
2022-10-06T01:04:55.724Z,12.10
2022-10-06T01:07:28.502Z,11.20
2022-10-06T01:09:58.312Z,11.20
2022-10-06T01:12:29.464Z,11.20
2022-10-06T01:14:57.742Z,12.30
2022-10-06T01:17:51.913Z,11.50
2022-10-06T01:20:21.851Z,13.00
2022-10-06T01:23:11.748Z,11.00
2022-10-06T01:25:40.056Z,11.50
2022-10-06T01:28:10.009Z,14.40
2022-10-06T01:30:53.654Z,14.20
2022-10-06T01:33:24.204Z,14.50
2022-10-06T01:35:53.702Z,13.00
2022-10-06T01:38:22.189Z,11.80
2022-10-06T01:40:54.298Z,10.70
2022-10-06T01:43:22.513Z,9.40
2022-10-06T01:45:57.998Z,9.40
2022-10-06T01:48:27.840Z,10.60
2022-10-06T01:50:58.343Z,10.60
2022-10-06T01:53:26.432Z,9.90
2022-10-06T01:56:00.965Z,9.30
2022-10-06T01:58:30.732Z,9.60
2022-10-06T02:01:08.729Z,8.30
2022-10-06T02:03:39.488Z,8.10
2022-10-06T02:06:09.056Z,7.90
2022-10-06T02:08:37.455Z,7.50
2022-10-06T02:11:12.094Z,7.00
2022-10-06T02:13:43.527Z,13.50
2022-10-06T02:16:13.926Z,12.60
2022-10-06T02:18:43.391Z,11.60
2022-10-06T02:21:20.579Z,10.50
2022-10-06T02:23:48.921Z,9.60
2022-10-06T02:26:18.322Z,9.10
2022-10-06T02:28:47.662Z,8.60
2022-10-06T02:31:18.058Z,7.70
2022-10-06T02:33:46.568Z,7.90
2022-10-06T02:36:19.384Z,9.00
2022-10-06T02:38:47.578Z,8.10
2022-10-06T02:41:15.788Z,10.00
2022-10-06T02:43:43.892Z,8.00
2022-10-06T02:46:13.669Z,8.20
2022-10-06T02:48:46.845Z,9.00
2022-10-06T02:51:19.247Z,9.20
2022-10-06T02:53:48.952Z,9.00
2022-10-06T02:56:25.440Z,8.50
2022-10-06T02:58:54.182Z,8.50
2022-10-06T03:01:28.987Z,8.20
2022-10-06T03:03:59.273Z,9.20
2022-10-06T03:06:30.999Z,6.80
2022-10-06T03:09:08.000Z,6.80
2022-10-06T03:11:41.012Z,7.30
2022-10-06T03:14:09.803Z,8.00
2022-10-06T03:16:41.484Z,7.60
2022-10-06T03:19:14.416Z,8.50
2022-10-06T03:21:44.595Z,7.20
2022-10-06T03:24:13.651Z,7.80
2022-10-06T03:26:46.058Z,8.50
2022-10-06T03:29:16.317Z,8.00
2022-10-06T03:31:47.518Z,8.90
2022-10-06T03:34:15.744Z,8.30
2022-10-06T03:36:44.678Z,9.20
2022-10-06T03:39:13.003Z,9.70
2022-10-06T03:41:41.631Z,9.80
2022-10-06T03:44:10.717Z,10.40
2022-10-06T03:46:41.248Z,10.30
2022-10-06T03:49:09.518Z,11.10
2022-10-06T03:51:41.089Z,10.20
2022-10-06T03:54:16.077Z,10.20
2022-10-06T03:56:46.378Z,12.30
2022-10-06T03:59:19.665Z,10.90
2022-10-06T04:01:49.328Z,11.20
2022-10-06T04:04:24.527Z,12.30
2022-10-06T04:06:56.720Z,11.60
2022-10-06T04:09:24.946Z,12.30
2022-10-06T04:11:53.113Z,13.40
2022-10-06T04:14:21.923Z,12.90
2022-10-06T04:16:51.296Z,12.80
2022-10-06T04:19:32.619Z,12.60
2022-10-06T04:22:00.834Z,12.20
2022-10-06T04:24:30.114Z,14.50
2022-10-06T04:27:17.312Z,12.90
2022-10-06T04:29:50.739Z,12.50
2022-10-06T04:32:18.886Z,12.00
2022-10-06T04:34:47.087Z,14.10
2022-10-06T04:37:15.377Z,12.00
2022-10-06T04:39:44.132Z,12.30
2022-10-06T04:42:12.305Z,13.00
2022-10-06T04:44:40.446Z,11.90
2022-10-06T04:47:08.696Z,13.40
2022-10-06T04:49:36.895Z,13.80
2022-10-06T04:52:05.308Z,12.10
2022-10-06T04:54:35.022Z,11.00
2022-10-06T04:57:06.000Z,11.90
2022-10-06T04:59:52.819Z,10.90
2022-10-06T05:02:21.105Z,10.50
2022-10-06T05:04:52.979Z,13.30
2022-10-06T05:07:23.278Z,12.00
2022-10-06T05:09:51.491Z,12.30
2022-10-06T05:12:19.674Z,12.30
2022-10-06T05:14:48.315Z,11.10
2022-10-06T05:17:16.741Z,9.10
2022-10-06T05:19:45.497Z,9.30
2022-10-06T05:22:13.754Z,9.00
2022-10-06T05:24:42.014Z,10.30
2022-10-06T05:27:10.128Z,11.20
2022-10-06T05:29:38.718Z,12.50
2022-10-06T05:32:09.168Z,13.00
2022-10-06T05:34:38.077Z,14.70
2022-10-06T05:37:07.319Z,12.40
2022-10-06T05:39:36.063Z,10.00
2022-10-06T05:42:04.317Z,9.80
2022-10-06T05:44:32.804Z,9.50
2022-10-06T05:47:03.495Z,9.10
2022-10-06T05:49:31.745Z,9.90
2022-10-06T05:52:03.000Z,8.10
2022-10-06T05:54:33.915Z,23.30
2022-10-06T05:57:02.197Z,19.60
2022-10-06T05:59:32.638Z,20.50
2022-10-06T06:02:01.820Z,30.10
2022-10-06T06:04:35.316Z,32.80
2022-10-06T06:07:03.534Z,29.60
2022-10-06T06:09:31.718Z,39.70
2022-10-06T06:12:01.730Z,32.80
2022-10-06T06:14:56.733Z,31.20
2022-10-06T06:17:32.231Z,28.20
2022-10-06T06:20:00.535Z,37.80
2022-10-06T06:22:28.764Z,27.30
2022-10-06T06:24:56.903Z,30.50
2022-10-06T06:27:26.419Z,23.70
2022-10-06T06:29:55.920Z,23.00
2022-10-06T06:32:25.014Z,22.40
2022-10-06T06:34:53.353Z,24.90
2022-10-06T06:37:21.529Z,24.10
2022-10-06T06:39:50.364Z,23.50
2022-10-06T06:42:18.972Z,24.80
2022-10-06T06:44:50.502Z,20.60
2022-10-06T06:47:39.871Z,20.60
2022-10-06T06:50:10.726Z,21.00
2022-10-06T06:52:41.916Z,20.50
2022-10-06T06:55:12.128Z,17.50
2022-10-06T06:57:42.505Z,14.10
2022-10-06T07:00:11.500Z,13.90
2022-10-06T07:02:40.392Z,12.90
2022-10-06T07:05:11.629Z,16.30
2022-10-06T07:07:40.177Z,10.90
2022-10-06T07:10:09.489Z,11.40
2022-10-06T07:12:38.235Z,11.60
2022-10-06T07:15:25.868Z,9.90
2022-10-06T07:18:13.565Z,11.10
2022-10-06T07:21:00.421Z,10.20
2022-10-06T07:23:47.626Z,11.80
2022-10-06T07:26:19.003Z,10.70
2022-10-06T07:28:49.649Z,10.30
2022-10-06T07:31:19.726Z,11.10
2022-10-06T07:33:48.924Z,11.70
2022-10-06T07:36:17.586Z,10.50
2022-10-06T07:38:47.921Z,10.80
2022-10-06T07:41:20.322Z,8.80
2022-10-06T07:43:55.353Z,8.00
2022-10-06T07:46:24.938Z,7.70
2022-10-06T07:49:17.580Z,8.10
2022-10-06T07:51:46.149Z,8.00
2022-10-06T07:54:14.312Z,8.10
2022-10-06T07:56:53.120Z,7.50
2022-10-06T07:59:21.372Z,9.70
2022-10-06T08:01:51.324Z,8.50
2022-10-06T08:04:19.640Z,9.00
2022-10-06T08:06:49.569Z,7.20
2022-10-06T08:09:17.683Z,6.30
2022-10-06T08:11:47.520Z,7.00
2022-10-06T08:14:15.649Z,7.50
2022-10-06T08:16:43.713Z,7.10
2022-10-06T08:19:11.829Z,6.70
2022-10-06T08:21:40.517Z,6.70
2022-10-06T08:24:09.935Z,7.30
2022-10-06T08:26:38.926Z,7.50
2022-10-06T08:29:07.063Z,7.80
2022-10-06T08:31:35.303Z,9.00
2022-10-06T08:34:03.452Z,6.40
2022-10-06T08:36:32.772Z,6.50
2022-10-06T08:39:01.620Z,6.00
2022-10-06T08:41:51.126Z,5.80
2022-10-06T08:44:52.275Z,6.00
2022-10-06T08:47:23.461Z,5.00
2022-10-06T08:49:55.471Z,5.70
2022-10-06T08:53:14.023Z,6.40
2022-10-06T08:55:53.536Z,5.30
2022-10-06T08:58:52.486Z,5.00
2022-10-06T09:01:28.329Z,5.30
2022-10-06T09:04:03.303Z,5.80
2022-10-06T09:07:15.441Z,6.70
2022-10-06T09:10:19.245Z,6.60
2022-10-06T09:15:40.330Z,6.60
2022-10-06T09:18:56.465Z,6.50
2022-10-06T09:21:40.229Z,6.80
2022-10-06T09:24:18.227Z,6.40
2022-10-06T09:26:51.466Z,6.00
2022-10-06T09:29:19.742Z,5.70
2022-10-06T09:31:50.679Z,5.90
2022-10-06T09:34:40.071Z,6.40
2022-10-06T09:37:12.847Z,5.50
2022-10-06T09:39:44.646Z,5.30
2022-10-06T09:42:18.647Z,6.60
2022-10-06T09:45:23.843Z,4.90
2022-10-06T09:47:52.055Z,6.20
2022-10-06T09:50:25.987Z,7.00
2022-10-06T09:53:06.179Z,4.50
2022-10-06T09:55:47.647Z,5.00
2022-10-06T09:58:24.631Z,5.10
2022-10-06T10:00:57.835Z,4.60
2022-10-06T10:03:41.961Z,4.30
2022-10-06T10:06:41.899Z,3.90
2022-10-06T10:09:23.303Z,4.00
2022-10-06T10:12:24.696Z,4.50
2022-10-06T10:15:05.276Z,4.70
2022-10-06T10:17:42.731Z,5.10
2022-10-06T10:20:36.286Z,5.30
2022-10-06T10:26:01.751Z,4.60
2022-10-06T10:29:15.551Z,4.60
2022-10-06T10:31:49.520Z,4.00
2022-10-06T10:34:54.506Z,3.30
2022-10-06T10:37:35.933Z,3.30
2022-10-06T10:40:15.069Z,3.70
2022-10-06T10:43:11.405Z,3.60
2022-10-06T10:45:48.599Z,3.20
2022-10-06T10:48:31.870Z,3.20
2022-10-06T10:54:13.435Z,2.30
2022-10-06T10:56:44.108Z,2.20
2022-10-06T10:59:27.518Z,2.70
2022-10-06T11:02:21.676Z,2.60
2022-10-06T11:05:01.722Z,2.50
2022-10-06T11:08:05.698Z,3.20
2022-10-06T11:11:37.987Z,3.40
2022-10-06T11:14:30.109Z,3.60
2022-10-06T11:17:15.705Z,3.90
2022-10-06T11:20:04.450Z,4.60
2022-10-06T11:22:53.142Z,4.30
2022-10-06T11:25:43.057Z,4.20
2022-10-06T11:28:27.732Z,3.30
2022-10-06T11:31:06.329Z,3.10
2022-10-06T11:33:54.325Z,3.00
2022-10-06T11:36:52.316Z,3.30
2022-10-06T11:39:35.177Z,4.50
2022-10-06T11:45:32.907Z,3.70
2022-10-06T11:48:06.708Z,3.00
2022-10-06T11:50:44.672Z,3.40
2022-10-06T11:53:34.609Z,3.90
2022-10-06T11:56:17.655Z,4.00
2022-10-06T11:58:51.981Z,3.60
2022-10-06T12:01:32.547Z,4.30
2022-10-06T12:04:09.542Z,3.80
2022-10-06T12:06:58.540Z,4.10
2022-10-06T12:09:32.803Z,3.90
2022-10-06T12:12:08.381Z,3.80
2022-10-06T12:18:34.514Z,3.80
2022-10-06T12:21:30.284Z,3.20
2022-10-06T12:24:20.982Z,4.00
2022-10-06T12:27:10.651Z,3.30
2022-10-06T12:30:14.722Z,3.60
2022-10-06T12:32:57.507Z,3.60
2022-10-06T12:35:41.342Z,3.20
2022-10-06T12:38:35.617Z,2.40
2022-10-06T12:41:03.940Z,3.40
2022-10-06T12:43:35.381Z,3.10
2022-10-06T12:46:16.427Z,2.80
2022-10-06T12:49:15.096Z,3.10
2022-10-06T12:51:46.120Z,2.60
2022-10-06T12:54:43.279Z,2.40
2022-10-06T12:57:18.356Z,1.90
2022-10-06T12:59:49.442Z,3.10
2022-10-06T13:02:25.631Z,2.90
2022-10-06T13:05:10.141Z,3.10
2022-10-06T13:08:07.028Z,3.30
2022-10-06T13:10:35.355Z,2.60
2022-10-06T13:13:24.489Z,2.40
2022-10-06T13:16:00.756Z,2.80
2022-10-06T13:18:29.015Z,2.90
2022-10-06T13:20:59.049Z,2.60
2022-10-06T13:23:37.247Z,2.30
2022-10-06T13:26:21.543Z,1.50
2022-10-06T13:28:53.066Z,1.30
2022-10-06T13:31:22.840Z,1.40
2022-10-06T13:33:57.303Z,1.90
2022-10-06T13:36:28.637Z,1.30
2022-10-06T13:38:57.346Z,1.10
2022-10-06T13:41:30.317Z,1.40
2022-10-06T13:46:56.327Z,1.20
2022-10-06T13:49:40.885Z,1.30
2022-10-06T13:52:35.255Z,1.00
2022-10-06T13:55:14.141Z,1.00
2022-10-06T13:58:17.722Z,1.20
2022-10-06T14:00:46.932Z,1.10
2022-10-06T14:03:24.018Z,1.30
2022-10-06T14:06:22.321Z,1.40
2022-10-06T14:08:57.945Z,1.30
2022-10-06T14:11:29.700Z,1.10
2022-10-06T14:14:04.678Z,1.40
2022-10-06T14:16:33.156Z,1.50
2022-10-06T14:19:06.122Z,1.50
2022-10-06T14:24:16.024Z,1.30
2022-10-06T14:26:45.884Z,1.50
2022-10-06T14:29:16.862Z,1.40
2022-10-06T14:31:45.937Z,1.50
2022-10-06T14:34:17.225Z,1.80
2022-10-06T14:36:51.505Z,1.60
2022-10-06T14:39:20.087Z,1.60
2022-10-06T14:41:48.331Z,1.70
2022-10-06T14:44:16.588Z,2.00
2022-10-06T14:46:48.962Z,1.80
2022-10-06T14:49:17.659Z,2.00
2022-10-06T14:51:46.560Z,2.40
2022-10-06T14:54:15.115Z,2.00
2022-10-06T14:56:43.279Z,2.00
2022-10-06T14:59:17.103Z,2.60
2022-10-06T15:01:47.269Z,2.30
2022-10-06T15:04:24.625Z,1.60
2022-10-06T15:07:11.544Z,2.60
2022-10-06T15:09:39.757Z,2.20
2022-10-06T15:12:07.915Z,2.40
2022-10-06T15:14:39.970Z,2.50
2022-10-06T15:17:08.619Z,2.30
2022-10-06T15:19:37.867Z,2.70
2022-10-06T15:22:09.016Z,2.90
2022-10-06T15:24:37.333Z,2.90
2022-10-06T15:27:25.036Z,3.00
2022-10-06T15:29:53.749Z,2.90
2022-10-06T15:32:22.608Z,3.10
2022-10-06T15:34:52.389Z,3.00
2022-10-06T15:37:20.606Z,3.20
2022-10-06T15:39:48.879Z,3.40
2022-10-06T15:42:20.073Z,3.00
2022-10-06T15:44:48.684Z,3.50
2022-10-06T15:47:17.485Z,3.90
2022-10-06T15:49:47.057Z,6.90
2022-10-06T15:52:17.702Z,11.60
2022-10-06T15:54:48.123Z,12.80
2022-10-06T15:57:20.664Z,8.90
2022-10-06T15:59:49.790Z,6.70
2022-10-06T16:02:20.250Z,5.20
2022-10-06T16:05:04.908Z,5.20
2022-10-06T16:07:34.107Z,5.20
2022-10-06T16:10:02.286Z,4.40
2022-10-06T16:12:30.383Z,4.40
2022-10-06T16:14:58.603Z,4.70
2022-10-06T16:17:26.795Z,4.20
2022-10-06T16:19:54.949Z,4.40
2022-10-06T16:22:23.105Z,5.40
2022-10-06T16:24:51.455Z,4.90
2022-10-06T16:27:19.671Z,7.30
2022-10-06T16:29:47.774Z,5.90
2022-10-06T16:32:17.324Z,9.60
2022-10-06T16:34:50.439Z,8.60
2022-10-06T16:37:18.656Z,9.10
2022-10-06T16:39:46.923Z,8.10
2022-10-06T16:42:15.068Z,7.50
2022-10-06T16:44:43.150Z,8.90
2022-10-06T16:47:11.347Z,8.60
2022-10-06T16:49:39.478Z,9.50
2022-10-06T16:52:25.366Z,11.90
2022-10-06T16:54:53.615Z,13.90
2022-10-06T16:57:21.771Z,11.40
2022-10-06T16:59:49.878Z,10.50
2022-10-06T17:02:17.999Z,7.40
2022-10-06T17:04:46.099Z,6.00
2022-10-06T17:07:14.204Z,5.60
2022-10-06T17:09:55.981Z,5.70
2022-10-06T17:12:30.515Z,7.00
2022-10-06T17:14:58.644Z,8.90
2022-10-06T17:17:26.763Z,8.60
2022-10-06T17:19:54.861Z,9.40
2022-10-06T17:22:22.968Z,10.90
2022-10-06T17:24:51.094Z,12.00
2022-10-06T17:27:19.356Z,12.40
2022-10-06T17:29:47.476Z,12.50
2022-10-06T17:32:15.606Z,9.90
2022-10-06T17:34:43.719Z,9.10
2022-10-06T17:37:11.876Z,8.90
2022-10-06T17:39:44.774Z,8.60
2022-10-06T17:42:16.311Z,7.20
2022-10-06T17:44:45.125Z,6.60
2022-10-06T17:47:13.250Z,7.60
2022-10-06T17:49:41.360Z,9.10
2022-10-06T17:52:09.803Z,9.20
2022-10-06T17:54:37.935Z,10.70
2022-10-06T17:57:06.076Z,9.40
2022-10-06T17:59:34.262Z,9.10
2022-10-06T18:02:03.766Z,9.60
2022-10-06T18:04:33.823Z,10.40
2022-10-06T18:07:03.417Z,10.20
2022-10-06T18:09:31.560Z,9.70
2022-10-06T18:12:00.410Z,9.70
2022-10-06T18:14:33.367Z,10.50
2022-10-06T18:17:03.869Z,11.50
2022-10-06T18:19:35.961Z,11.90
2022-10-06T18:22:10.707Z,12.90
2022-10-06T18:24:40.289Z,13.50
2022-10-06T18:27:08.992Z,12.20
2022-10-06T18:29:39.263Z,12.60
2022-10-06T18:33:16.524Z,12.00
2022-10-06T18:37:45.430Z,11.50
2022-10-06T18:40:14.849Z,11.20
2022-10-06T18:42:43.441Z,10.80
2022-10-06T18:45:35.451Z,11.70
2022-10-06T18:48:27.594Z,11.10
2022-10-06T18:51:02.993Z,11.50
2022-10-06T18:53:36.431Z,12.00
2022-10-06T18:56:07.060Z,10.90
2022-10-06T18:58:42.381Z,10.60
2022-10-06T19:01:11.694Z,12.90
2022-10-06T19:03:41.000Z,11.10
2022-10-06T19:06:09.200Z,12.80
2022-10-06T19:08:37.404Z,12.50
2022-10-06T19:11:25.971Z,12.40
2022-10-06T19:13:56.332Z,12.00
2022-10-06T19:16:24.595Z,11.10
2022-10-06T19:18:52.889Z,12.40
2022-10-06T19:21:21.114Z,13.40
2022-10-06T19:23:50.358Z,11.50
2022-10-06T19:26:22.667Z,11.70
2022-10-06T19:28:51.216Z,13.00
2022-10-06T19:31:20.529Z,12.40
2022-10-06T19:33:48.893Z,11.40
2022-10-06T19:36:17.501Z,11.20
2022-10-06T19:38:45.677Z,10.40
2022-10-06T19:41:32.437Z,10.80
2022-10-06T19:44:03.269Z,10.60
2022-10-06T19:46:31.597Z,10.80
2022-10-06T19:49:05.642Z,10.20
2022-10-06T19:51:35.540Z,9.60
2022-10-06T19:54:04.917Z,11.10
2022-10-06T19:56:34.032Z,10.40
2022-10-06T19:59:03.865Z,11.50
2022-10-06T20:01:33.207Z,12.00
2022-10-06T20:04:03.313Z,13.40
2022-10-06T20:06:32.235Z,12.80
2022-10-06T20:09:06.657Z,11.90
2022-10-06T20:11:40.960Z,13.50
2022-10-06T20:14:19.838Z,12.10
2022-10-06T20:16:51.962Z,12.70
2022-10-06T20:19:21.053Z,11.30
2022-10-06T20:21:49.698Z,10.70
2022-10-06T20:24:24.937Z,10.20
2022-10-06T20:26:54.199Z,9.20
2022-10-06T20:29:26.047Z,10.20
2022-10-06T20:31:56.653Z,9.70
2022-10-06T20:34:32.529Z,10.30
2022-10-06T20:37:04.119Z,10.30
2022-10-06T20:39:52.783Z,11.10
2022-10-06T20:42:21.749Z,10.70
2022-10-06T20:44:50.010Z,10.60
2022-10-06T20:47:18.221Z,11.30
2022-10-06T20:49:46.790Z,12.30
2022-10-06T20:52:15.094Z,12.30
2022-10-06T20:54:43.349Z,11.30
2022-10-06T20:57:11.729Z,11.70
2022-10-06T20:59:39.948Z,11.20
2022-10-06T21:02:10.534Z,10.90
2022-10-06T21:04:43.452Z,11.00
2022-10-06T21:09:40.424Z,9.70
2022-10-06T21:12:08.750Z,9.50
2022-10-06T21:14:37.712Z,9.70
2022-10-06T21:17:05.897Z,10.70
2022-10-06T21:19:38.208Z,10.20
2022-10-06T21:22:06.529Z,9.30
2022-10-06T21:24:34.740Z,10.80
2022-10-06T21:27:03.194Z,9.10
2022-10-06T21:29:31.358Z,11.80
2022-10-06T21:31:59.772Z,10.70
2022-10-06T21:34:27.927Z,10.20
2022-10-06T21:36:56.439Z,10.40
2022-10-06T21:39:24.626Z,9.50
2022-10-06T21:41:52.792Z,11.20
2022-10-06T21:44:20.931Z,11.50
2022-10-06T21:46:53.703Z,12.10
2022-10-06T21:49:24.452Z,12.90
2022-10-06T21:51:55.402Z,12.90
2022-10-06T21:54:24.399Z,11.30
2022-10-06T21:56:53.285Z,10.60
2022-10-06T21:59:21.462Z,9.60
2022-10-06T22:01:52.422Z,11.20
2022-10-06T22:04:20.594Z,10.20
2022-10-06T22:06:50.789Z,10.00
2022-10-06T22:09:20.415Z,10.00
2022-10-06T22:11:49.456Z,10.00
2022-10-06T22:14:19.391Z,10.00
2022-10-06T22:16:48.791Z,11.80
2022-10-06T22:19:18.230Z,11.50
2022-10-06T22:21:48.675Z,12.20
2022-10-06T22:24:20.567Z,11.40
2022-10-06T22:26:50.102Z,10.00
2022-10-06T22:29:19.977Z,9.80
2022-10-06T22:31:49.307Z,10.00
2022-10-06T22:34:20.356Z,9.80
2022-10-06T22:36:48.635Z,10.90
2022-10-06T22:39:16.991Z,9.40
2022-10-06T22:41:45.509Z,8.90
2022-10-06T22:44:13.656Z,9.40
2022-10-06T22:46:41.912Z,9.60
2022-10-06T22:49:10.095Z,9.80
2022-10-06T22:51:38.401Z,11.00
2022-10-06T22:54:06.641Z,10.10
2022-10-06T22:56:35.019Z,10.70
2022-10-06T22:59:03.598Z,10.80
2022-10-06T23:01:31.770Z,10.60
2022-10-06T23:04:00.470Z,10.00
2022-10-06T23:06:31.259Z,10.10
2022-10-06T23:08:59.909Z,10.20
2022-10-06T23:11:28.797Z,9.00
2022-10-06T23:13:57.226Z,9.50
2022-10-06T23:16:25.572Z,8.00
2022-10-06T23:18:55.085Z,9.70
2022-10-06T23:21:27.437Z,9.20
2022-10-06T23:24:00.053Z,10.20
2022-10-06T23:26:29.215Z,8.40
2022-10-06T23:29:01.246Z,9.00
2022-10-06T23:31:30.094Z,9.60
2022-10-06T23:33:58.508Z,8.50
2022-10-06T23:36:26.719Z,8.60
2022-10-06T23:38:55.875Z,8.90
2022-10-06T23:41:24.537Z,8.40
2022-10-06T23:43:52.621Z,8.60
2022-10-06T23:46:20.880Z,8.10
2022-10-06T23:48:49.144Z,8.60
2022-10-06T23:51:17.765Z,7.60
2022-10-06T23:53:46.087Z,7.70
2022-10-06T23:56:14.427Z,7.30
2022-10-06T23:58:42.663Z,7.30
